KBLF/BLF METAR and TAF weather

Enter ICAO airport designator
Station Type Date Time Source
KBLF METAR 2018/01/22 19:52 UTC NOAA

KBLF 221952Z AUTO 17007G16KT 10SM CLR 13/02 A2996 RMK AO2 SLP131 T01330022


Station Type Date Time Source
KBLF Decoded METAR 2018/01/22 19:52 UTC NOAA

BLUEFIELD MERCER COUNTY AIRPORT , WV, United States (KBLF) 37-18N 081-12W 873M
Jan 22, 2018 - 02:52 PM EST / 2018.01.22 1952 UTC
Wind: from the S (170 degrees) at 8 MPH (7 KT) gusting to 18 MPH (16 KT):0
Visibility: 10 mile(s):0
Sky conditions: clear
Temperature: 55.9 F (13.3 C)
Dew Point: 36.0 F (2.2 C)
Relative Humidity: 46%
Pressure (altimeter): 29.96 in. Hg (1014 hPa)
ob: KBLF 221952Z AUTO 17007G16KT 10SM CLR 13/02 A2996 RMK AO2 SLP131 T01330022
cycle: 20

Station Type Date Time Source
KBLF TAF 2018/01/22 18:27 UTC NOAA

TAF KBLF 221723Z 2218/2318 17008G18KT P6SM OVC080
FM222200 18010G20KT P6SM VCSH SCT025 OVC050
FM230200 17010G18KT 5SM -SHRA BR OVC035 WS020/19040KT
FM230300 17011G20KT 3SM -SHRA BR OVC015 WS020/19045KT
TEMPO 2303/2306 VRB20G35KT 1SM +SHRA BR OVC004
FM231200 25011KT P6SM BKN018
FM231500 26016G25KT P6SM BKN025


Example: see airport list